CW6185 Weather Reports


time (UTC)temp
C
wind
direction
speed
KPH
gust
KPH
rain 1hr
cm
rain 24hr
cm
rain mn
cm
humidity
%
barometer
mb
20190421143510 26 103 0.0 6.4 0.00 0.00 0.00 22 1015.4
20190421142010 26 75 6.4 12.9 0.00 0.00 0.00 20 1015.5
20190421130514 25 250 0.0 4.8 0.00 0.00 0.00 22 1016.6
20190421123514 25 103 1.6 6.4 0.00 0.00 0.00 26 1017.0
20190421122014 25 180 4.8 9.7 0.00 0.00 0.00 26 1017.3
20190421120514 25 161 1.6 11.3 0.00 0.00 0.00 28 1017.5
20190421115013 25 101 4.8 9.7 0.00 0.00 0.00 30 1017.7
20190421113514 24 161 1.6 8.0 0.00 0.00 0.00 28 1017.9
20190421112013 23 336 1.6 4.8 0.00 0.00 0.00 29 1018.1
20190421105013 23 85 3.2 4.8 0.00 0.00 0.00 32 1018.6
20190421102013 22 54 3.2 8.0 0.00 0.00 0.00 36 1019.0
20190421100513 22 28 3.2 8.0 0.00 0.00 0.00 38 1019.2
20190421093512 21 349 3.2 9.7 0.00 0.00 0.00 42 1019.5
20190421092013 20 360 6.4 8.0 0.00 0.00 0.00 41 1019.8
20190421085012 19 28 3.2 4.8 0.00 0.00 0.00 43 1020.1
20190421082012 18 53 4.8 9.7 0.00 0.00 0.00 46 1020.1
20190421080512 17 57 4.8 11.3 0.00 0.00 0.00 51 1020.3
20190421075012 16 53 3.2 9.7 0.00 0.00 0.00 53 1020.4
20190421070512 15 45 1.6 8.0 0.00 0.00 0.00 58 1020.4
20190421065012 14 45 8.0 9.7 0.00 0.00 0.00 58 1020.4
20190421063511 13 50 4.8 9.7 0.00 0.00 0.00 61 1020.5
20190421062012 13 71 4.8 8.0 0.00 0.00 0.00 63 1020.5
20190421060516 12 71 0.0 4.8 0.00 0.00 0.00 66 1020.6
20190421053516 10 71 1.6 6.4 0.00 0.00 0.00 74 1020.4
20190421043515 8 71 3.2 3.2 0.00 0.00 0.00 76 1020.4
20190421042015 9 71 1.6 6.4 0.00 0.00 0.00 73 1020.5
20190421035015 9 78 1.6 4.8 0.00 0.00 0.00 74 1020.6
20190421033515 9 78 0.0 4.8 0.00 0.00 0.00 74 1020.7
20190421023514 10 78 1.6 4.8 0.00 0.00 0.00 72 1021.4
20190421022014 10 78 3.2 4.8 0.00 0.00 0.00 73 1021.6
20190421015012 10 78 3.2 4.8 0.00 0.00 0.00 71 1021.7
20190421010511 11 78 3.2 4.8 0.00 0.00 0.00 70 1021.9
20190421003511 11 78 3.2 4.8 0.00 0.00 0.00 67 1021.9
20190421002011 11 78 3.2 4.8 0.00 0.00 0.00 67 1022.1
20190420235011 12 78 1.6 4.8 0.00 0.00 0.00 64 1022.3
20190420233511 12 78 1.6 6.4 0.00 0.00 0.00 61 1022.4
20190420220512 13 86 3.2 6.4 0.00 0.00 0.00 59 1022.9
20190420212013 14 90 1.6 4.8 0.00 0.00 0.00 55 1023.1
20190420210513 13 90 1.6 3.2 0.00 0.00 0.00 58 1023.1
20190420205013 13 90 0.0 3.2 0.00 0.00 0.00 58 1023.1
20190420202011 14 90 0.0 0.0 0.00 0.00 0.00 53 1022.9
20190420193512 16 90 0.0 0.0 0.00 0.00 0.00 48 1022.9
20190420192012 17 90 0.0 0.0 0.00 0.00 0.00 43 1023.0
20190420190511 18 90 0.0 1.6 0.00 0.00 0.00 37 1022.9
20190420183512 21 90 3.2 6.4 0.00 0.00 0.00 28 1022.9
20190420173512 23 85 1.6 6.4 0.00 0.00 0.00 27 1022.8
20190420172010 23 73 1.6 6.4 0.00 0.00 0.00 27 1022.8
20190420162014 24 98 9.7 14.5 0.00 0.00 0.00 23 1023.2